Time;durP1;ratioP1;P1;durP2;ratioP2;P2;SDS_P1;SDS_P2;PMS_P1;PMS_P2;Temp;Humidity;BMP_temperature;BMP_pressure;BME280_temperature;BME280_humidity;BME280_pressure;Samples;Min_cycle;Max_cycle;Signal;HPM_P1;HPM_P2
2021/05/28 00:01:29;;;;;;;3.92;1.40;;;12.90;99.90;;;;;;4982542;28;20069;-74
2021/05/28 00:03:55;;;;;;;5.15;1.52;;;12.90;99.90;;;;;;4982054;28;20067;-74
2021/05/28 00:06:20;;;;;;;4.70;1.60;;;12.80;99.90;;;;;;4988768;28;20515;-74
2021/05/28 00:08:46;;;;;;;4.45;1.33;;;12.80;99.90;;;;;;4989714;28;20046;-74
2021/05/28 00:11:11;;;;;;;5.22;1.40;;;12.80;99.90;;;;;;4975928;28;20038;-74
2021/05/28 00:13:37;;;;;;;5.63;1.60;;;12.80;99.90;;;;;;4972809;28;20051;-74
2021/05/28 00:16:03;;;;;;;4.75;1.20;;;12.80;99.90;;;;;;4988601;28;20038;-74
2021/05/28 00:18:29;;;;;;;6.50;1.15;;;12.70;99.90;;;;;;4991638;28;20749;-74
2021/05/28 00:20:55;;;;;;;7.57;1.50;;;12.80;99.90;;;;;;4978663;28;20110;-74
2021/05/28 00:23:20;;;;;;;5.25;1.25;;;12.70;99.90;;;;;;4972734;28;20058;-74
2021/05/28 00:25:46;;;;;;;5.80;1.17;;;12.70;99.90;;;;;;4987670;28;20035;-74
2021/05/28 00:28:12;;;;;;;5.95;1.50;;;12.70;99.90;;;;;;4971560;28;20073;-74
2021/05/28 00:30:38;;;;;;;3.55;1.20;;;12.60;99.90;;;;;;4988195;28;20579;-74
2021/05/28 00:33:04;;;;;;;4.38;1.25;;;12.60;99.90;;;;;;4992289;28;20038;-74
2021/05/28 00:35:30;;;;;;;4.75;1.42;;;12.50;99.90;;;;;;4989471;28;20053;-74
2021/05/28 00:37:56;;;;;;;4.13;1.65;;;12.50;99.90;;;;;;5000549;28;20353;-74
2021/05/28 00:40:21;;;;;;;6.75;2.40;;;12.40;99.90;;;;;;4991844;28;20041;-74
2021/05/28 00:42:47;;;;;;;6.43;2.40;;;12.20;99.90;;;;;;4991023;28;20045;-74
2021/05/28 00:45:13;;;;;;;5.50;2.10;;;12.30;99.90;;;;;;4991486;28;20048;-74
2021/05/28 00:47:39;;;;;;;5.50;2.50;;;12.30;99.90;;;;;;4991615;28;20124;-74
2021/05/28 00:50:06;;;;;;;5.90;2.70;;;12.20;99.90;;;;;;4990431;28;20485;-74
2021/05/28 00:52:33;;;;;;;4.25;1.90;;;12.20;99.90;;;;;;4986770;28;20031;-74
2021/05/28 00:54:59;;;;;;;4.38;2.05;;;12.20;99.90;;;;;;5000655;28;20030;-74
2021/05/28 00:57:28;;;;;;;5.53;1.80;;;12.10;99.90;;;;;;4991680;28;20053;-74
2021/05/28 00:59:56;;;;;;;5.20;1.83;;;12.10;99.90;;;;;;4992090;28;20077;-74
2021/05/28 01:02:23;;;;;;;3.88;1.50;;;12.10;99.90;;;;;;4991453;28;20064;-74
2021/05/28 01:04:48;;;;;;;4.22;1.33;;;12.20;99.90;;;;;;4992309;28;20027;-75
2021/05/28 01:07:14;;;;;;;3.63;1.50;;;12.10;99.90;;;;;;4983156;28;20038;-74
2021/05/28 01:09:40;;;;;;;4.97;1.30;;;12.20;99.90;;;;;;4990495;28;20038;-74
2021/05/28 01:12:06;;;;;;;3.58;1.33;;;12.20;99.90;;;;;;4981206;28;20030;-74
2021/05/28 01:14:32;;;;;;;6.18;1.60;;;12.10;99.90;;;;;;4990925;28;20069;-74
2021/05/28 01:16:57;;;;;;;3.95;1.20;;;12.10;99.90;;;;;;4990862;28;20054;-74
2021/05/28 01:19:25;;;;;;;4.00;1.40;;;12.10;99.90;;;;;;4991700;28;20030;-74
2021/05/28 01:21:52;;;;;;;4.28;1.30;;;11.90;99.90;;;;;;4990945;28;20026;-74
2021/05/28 01:24:18;;;;;;;7.53;1.58;;;11.90;99.90;;;;;;4990308;28;20481;-74
2021/05/28 01:26:44;;;;;;;4.25;1.52;;;11.90;99.90;;;;;;4990958;28;20118;-74
2021/05/28 01:29:10;;;;;;;5.90;1.65;;;11.90;99.90;;;;;;4990578;28;20481;-74
2021/05/28 01:31:36;;;;;;;4.13;1.33;;;11.90;99.90;;;;;;4972659;28;20808;-74
2021/05/28 01:34:02;;;;;;;3.95;1.65;;;11.90;99.90;;;;;;4984947;28;20034;-74
2021/05/28 01:36:28;;;;;;;4.30;1.52;;;11.90;99.90;;;;;;4973255;28;20850;-74
2021/05/28 01:38:54;;;;;;;6.80;1.38;;;11.90;99.90;;;;;;4983839;28;20070;-74
2021/05/28 01:41:20;;;;;;;5.60;1.35;;;11.90;99.90;;;;;;4990919;28;20053;-74
2021/05/28 01:43:46;;;;;;;3.03;1.30;;;11.80;99.90;;;;;;4990584;28;20026;-74
2021/05/28 01:46:11;;;;;;;4.80;1.40;;;11.80;99.90;;;;;;4991351;28;20062;-74
2021/05/28 01:48:39;;;;;;;5.13;1.30;;;11.80;99.90;;;;;;4990166;28;20042;-74
2021/05/28 01:51:07;;;;;;;4.22;1.10;;;11.80;99.90;;;;;;4989660;28;20034;-74
2021/05/28 01:53:32;;;;;;;4.43;1.20;;;11.80;99.90;;;;;;4990885;28;20026;-73
2021/05/28 01:55:58;;;;;;;3.53;1.02;;;11.80;99.90;;;;;;4991017;28;20068;-74
2021/05/28 01:58:26;;;;;;;3.47;1.38;;;11.80;99.90;;;;;;4982131;28;20141;-75
2021/05/28 02:00:56;;;;;;;5.15;1.30;;;11.70;99.90;;;;;;4983667;28;20031;-74
2021/05/28 02:03:21;;;;;;;4.63;1.25;;;11.60;99.90;;;;;;4971053;28;20019;-74
2021/05/28 02:05:47;;;;;;;4.78;1.10;;;11.50;99.90;;;;;;4985615;28;20385;-74
2021/05/28 02:08:14;;;;;;;3.75;1.10;;;11.40;99.90;;;;;;4974893;28;20027;-74
2021/05/28 02:10:40;;;;;;;3.60;1.10;;;11.30;99.90;;;;;;4978757;28;20034;-74
2021/05/28 02:13:05;;;;;;;3.35;1.05;;;11.30;99.90;;;;;;4971454;28;20689;-74
2021/05/28 02:15:31;;;;;;;3.42;1.10;;;11.30;99.90;;;;;;4996654;28;20041;-74
2021/05/28 02:17:57;;;;;;;3.42;0.98;;;11.30;99.90;;;;;;4991269;28;20484;-74
2021/05/28 02:20:24;;;;;;;4.05;1.27;;;11.30;99.90;;;;;;4977698;28;20488;-74
2021/05/28 02:22:49;;;;;;;4.05;1.40;;;11.40;99.90;;;;;;4990519;28;20085;-74
2021/05/28 02:25:16;;;;;;;3.80;1.00;;;11.40;99.90;;;;;;4989423;28;20528;-74
2021/05/28 02:27:43;;;;;;;3.40;1.17;;;11.30;99.90;;;;;;4979726;28;20038;-74
2021/05/28 02:30:10;;;;;;;3.53;1.30;;;11.30;99.90;;;;;;4986135;28;20041;-74
2021/05/28 02:32:36;;;;;;;5.78;2.20;;;11.20;99.90;;;;;;4989919;28;20088;-74
2021/05/28 02:35:03;;;;;;;8.13;2.88;;;11.30;99.90;;;;;;4981095;28;20027;-74
2021/05/28 02:37:29;;;;;;;6.70;2.42;;;11.20;99.90;;;;;;4990501;28;20049;-74
2021/05/28 02:39:55;;;;;;;8.15;2.80;;;11.20;99.90;;;;;;4989870;28;20030;-74
2021/05/28 02:42:21;;;;;;;12.70;3.33;;;11.00;99.90;;;;;;4989541;28;20026;-74
2021/05/28 02:44:47;;;;;;;8.88;3.45;;;11.00;99.90;;;;;;4989785;28;20109;-74
2021/05/28 02:47:13;;;;;;;8.98;3.40;;;11.10;99.90;;;;;;4988998;28;20121;-74
2021/05/28 02:49:38;;;;;;;10.50;3.40;;;11.10;99.90;;;;;;4988766;28;20038;-74
2021/05/28 02:52:05;;;;;;;9.43;3.17;;;11.10;99.90;;;;;;4987957;28;20038;-74
2021/05/28 02:54:31;;;;;;;7.25;2.92;;;11.20;99.90;;;;;;4989358;28;20491;-74
2021/05/28 02:56:57;;;;;;;8.32;2.60;;;11.10;99.90;;;;;;4985936;28;20145;-74
2021/05/28 02:59:23;;;;;;;9.25;2.30;;;11.10;99.90;;;;;;4989832;28;20141;-74
2021/05/28 03:01:49;;;;;;;8.75;2.28;;;11.00;99.90;;;;;;4984518;28;20464;-74
2021/05/28 03:04:15;;;;;;;6.32;2.15;;;10.90;99.90;;;;;;4989679;28;20027;-74
2021/05/28 03:06:41;;;;;;;7.90;2.00;;;11.10;99.90;;;;;;4987361;28;20797;-74
2021/05/28 03:09:07;;;;;;;5.10;1.80;;;10.90;99.90;;;;;;4983387;28;20480;-74
2021/05/28 03:11:32;;;;;;;8.57;1.90;;;10.90;99.90;;;;;;4974451;28;20110;-74
2021/05/28 03:13:58;;;;;;;5.13;1.83;;;10.90;99.90;;;;;;4990215;28;20488;-74
2021/05/28 03:16:24;;;;;;;4.30;1.45;;;10.80;99.90;;;;;;4980295;28;20077;-74
2021/05/28 03:18:56;;;;;;;6.03;1.98;;;10.70;99.90;;;;;;4997075;28;20047;-74
2021/05/28 03:24:01;;;;;;;6.35;2.30;;;10.80;99.90;;;;;;4988381;28;20030;-74
2021/05/28 03:26:27;;;;;;;7.90;2.17;;;10.70;99.90;;;;;;4988430;28;20404;-74
2021/05/28 03:28:54;;;;;;;5.95;2.15;;;10.70;99.90;;;;;;4988853;28;20042;-74
2021/05/28 03:31:21;;;;;;;7.30;3.15;;;10.70;99.90;;;;;;4987613;28;20030;-74
2021/05/28 03:33:47;;;;;;;6.57;2.22;;;10.70;99.90;;;;;;4988408;28;20038;-74
2021/05/28 03:36:14;;;;;;;8.73;2.35;;;10.70;99.90;;;;;;4988962;28;20088;-74
2021/05/28 03:38:40;;;;;;;10.43;2.22;;;10.70;99.90;;;;;;4988064;28;20030;-74
2021/05/28 03:41:06;;;;;;;9.52;2.72;;;10.70;99.90;;;;;;4989213;28;20061;-74
2021/05/28 03:43:32;;;;;;;9.68;2.20;;;10.60;99.90;;;;;;4987275;28;20026;-74
2021/05/28 03:45:58;;;;;;;4.60;1.85;;;10.60;99.90;;;;;;4989615;28;20061;-74
2021/05/28 03:48:24;;;;;;;5.53;1.88;;;10.60;99.90;;;;;;4987740;28;20046;-74
2021/05/28 03:50:49;;;;;;;8.45;1.90;;;10.60;99.90;;;;;;4970065;28;20034;-74
2021/05/28 03:53:15;;;;;;;9.70;1.77;;;10.60;99.90;;;;;;4984168;28;20042;-74
2021/05/28 03:55:41;;;;;;;8.13;1.95;;;10.50;99.90;;;;;;4987863;28;20495;-74
2021/05/28 03:58:06;;;;;;;6.72;2.58;;;10.40;99.90;;;;;;4988992;28;20062;-74
2021/05/28 04:00:32;;;;;;;7.80;2.33;;;10.40;99.90;;;;;;4987078;28;20038;-74
2021/05/28 04:02:57;;;;;;;6.07;2.03;;;10.40;99.90;;;;;;4989005;28;20026;-74
2021/05/28 04:05:23;;;;;;;8.40;2.53;;;10.50;99.90;;;;;;4988272;28;20038;-74
2021/05/28 04:07:49;;;;;;;11.70;2.33;;;10.50;99.90;;;;;;4984711;28;20027;-74
2021/05/28 04:10:15;;;;;;;6.50;1.92;;;10.50;99.90;;;;;;4979660;28;20042;-74
2021/05/28 04:12:42;;;;;;;9.30;2.67;;;10.50;99.90;;;;;;4989332;28;20045;-74
2021/05/28 04:15:08;;;;;;;9.57;3.17;;;10.50;99.90;;;;;;4985772;28;20113;-74
2021/05/28 04:17:34;;;;;;;7.15;2.22;;;10.50;99.90;;;;;;4988647;28;20141;-74
2021/05/28 04:20:00;;;;;;;6.57;1.85;;;10.50;99.90;;;;;;4988162;28;20117;-74
2021/05/28 04:22:26;;;;;;;5.50;2.00;;;10.50;99.90;;;;;;4988815;28;20026;-74
2021/05/28 04:24:52;;;;;;;5.97;1.67;;;10.50;99.90;;;;;;4988273;28;20041;-74
2021/05/28 04:27:18;;;;;;;5.53;2.13;;;10.40;99.90;;;;;;4988898;28;20057;-74
2021/05/28 04:29:44;;;;;;;6.22;1.85;;;10.40;99.90;;;;;;4988084;28;20076;-74
2021/05/28 04:32:10;;;;;;;7.78;1.80;;;10.40;99.90;;;;;;4988853;28;20042;-74
2021/05/28 04:34:37;;;;;;;7.93;1.80;;;10.40;99.90;;;;;;4988737;28;20112;-74
2021/05/28 04:37:03;;;;;;;7.10;2.10;;;10.40;99.90;;;;;;4988759;28;20045;-74
2021/05/28 04:39:28;;;;;;;8.00;2.25;;;10.40;99.90;;;;;;4989718;28;20399;-74
2021/05/28 04:41:55;;;;;;;6.63;2.22;;;10.50;99.90;;;;;;4988489;28;20041;-74
2021/05/28 04:44:20;;;;;;;8.52;2.10;;;10.40;99.90;;;;;;4988727;28;20035;-75
2021/05/28 04:46:46;;;;;;;8.65;2.10;;;10.40;99.90;;;;;;4988322;28;20037;-74
2021/05/28 04:49:12;;;;;;;6.28;2.10;;;10.40;99.90;;;;;;4988812;28;20045;-74
2021/05/28 04:51:38;;;;;;;9.02;1.83;;;10.50;99.90;;;;;;4987827;28;20414;-74
2021/05/28 04:54:04;;;;;;;5.07;2.20;;;10.80;99.90;;;;;;4988989;28;20096;-74
2021/05/28 04:56:30;;;;;;;7.75;2.20;;;11.10;99.90;;;;;;4989176;28;20027;-74
2021/05/28 04:58:55;;;;;;;7.30;2.90;;;11.40;99.90;;;;;;4992952;28;20898;-74
2021/05/28 05:01:21;;;;;;;6.30;2.60;;;11.80;99.90;;;;;;4991501;28;20029;-74
2021/05/28 05:03:47;;;;;;;7.70;2.55;;;12.10;99.90;;;;;;4992210;28;20030;-74
2021/05/28 05:06:13;;;;;;;7.07;2.22;;;12.20;99.90;;;;;;4991198;28;20077;-75
2021/05/28 05:08:38;;;;;;;7.38;2.17;;;12.60;99.90;;;;;;4992350;28;20049;-75
2021/05/28 05:11:04;;;;;;;8.73;2.28;;;12.90;99.90;;;;;;4991534;28;20053;-74
2021/05/28 05:13:30;;;;;;;9.68;3.08;;;13.10;99.90;;;;;;5005209;28;20033;-74
2021/05/28 05:15:55;;;;;;;10.23;2.97;;;13.40;99.90;;;;;;5004367;28;20038;-74
2021/05/28 05:18:24;;;;;;;10.77;3.15;;;13.40;99.90;;;;;;4996043;28;20050;-74
2021/05/28 05:20:49;;;;;;;8.13;3.08;;;13.70;99.90;;;;;;4989668;28;20026;-75
2021/05/28 05:23:15;;;;;;;10.95;3.78;;;13.50;99.90;;;;;;4990867;28;20476;-74
2021/05/28 05:25:41;;;;;;;9.73;3.30;;;13.70;99.90;;;;;;4991219;28;20049;-75
2021/05/28 05:28:07;;;;;;;11.32;3.28;;;13.80;99.90;;;;;;5001921;23;20790;-75
2021/05/28 05:30:32;;;;;;;10.48;3.78;;;13.90;99.90;;;;;;4999687;28;20062;-75
2021/05/28 05:32:58;;;;;;;8.15;3.50;;;14.10;99.90;;;;;;5008161;28;20045;-75
2021/05/28 05:35:24;;;;;;;14.30;4.47;;;14.30;99.90;;;;;;5023279;28;20057;-75
2021/05/28 05:37:49;;;;;;;10.23;3.58;;;14.30;99.90;;;;;;5010825;28;20121;-74
2021/05/28 05:40:15;;;;;;;8.43;5.70;;;14.10;99.90;;;;;;4994530;28;20861;-75
2021/05/28 05:42:41;;;;;;;12.25;7.78;;;14.20;99.90;;;;;;5007889;28;20070;-73
2021/05/28 05:45:09;;;;;;;16.27;13.35;;;14.60;99.90;;;;;;5007838;28;20080;-74
2021/05/28 05:47:35;;;;;;;11.35;6.30;;;14.90;99.90;;;;;;5008513;28;20034;-75
2021/05/28 05:50:01;;;;;;;10.57;3.80;;;15.10;99.90;;;;;;5000436;28;20021;-74
2021/05/28 05:52:27;;;;;;;7.03;2.05;;;15.30;99.90;;;;;;5006401;28;20073;-75
2021/05/28 05:54:53;;;;;;;5.75;1.48;;;15.20;99.90;;;;;;5009388;28;20037;-74
2021/05/28 05:57:18;;;;;;;5.45;1.52;;;15.20;99.90;;;;;;5001348;28;20027;-75
2021/05/28 05:59:44;;;;;;;4.53;2.13;;;15.50;99.90;;;;;;5005785;28;20041;-75
2021/05/28 06:02:10;;;;;;;11.57;3.13;;;15.10;99.90;;;;;;5009369;28;20375;-74
2021/05/28 06:04:35;;;;;;;8.82;3.20;;;15.40;99.90;;;;;;5003440;28;20045;-75
2021/05/28 06:07:01;;;;;;;9.27;3.97;;;15.50;99.90;;;;;;5008824;28;20084;-74
2021/05/28 06:09:27;;;;;;;5.85;3.05;;;15.40;99.90;;;;;;5017923;28;20076;-74
2021/05/28 06:11:54;;;;;;;6.07;3.30;;;15.60;99.90;;;;;;5035278;28;20133;-74
2021/05/28 06:14:20;;;;;;;9.73;2.65;;;15.90;99.90;;;;;;5004251;28;20038;-74
2021/05/28 06:16:45;;;;;;;8.07;3.00;;;16.10;99.90;;;;;;5006376;28;20030;-74
2021/05/28 06:19:11;;;;;;;5.30;2.20;;;16.50;99.90;;;;;;5006189;28;20836;-75
2021/05/28 06:21:37;;;;;;;5.90;2.58;;;16.60;99.90;;;;;;5005193;28;20014;-74
2021/05/28 06:24:03;;;;;;;5.95;2.80;;;16.80;99.90;;;;;;5002773;28;20045;-75
2021/05/28 06:26:29;;;;;;;8.27;2.85;;;16.80;99.90;;;;;;4995106;28;20533;-75
2021/05/28 06:28:54;;;;;;;7.93;1.70;;;16.80;99.90;;;;;;5007371;28;20050;-74
2021/05/28 06:31:20;;;;;;;6.07;2.30;;;16.30;99.90;;;;;;5003660;28;20034;-74
2021/05/28 06:33:46;;;;;;;6.63;2.20;;;16.30;99.90;;;;;;5007261;28;20498;-74
2021/05/28 06:36:11;;;;;;;6.28;1.85;;;16.10;99.90;;;;;;5005109;28;20049;-75
2021/05/28 06:38:37;;;;;;;5.97;2.20;;;15.70;99.90;;;;;;4999886;28;20092;-75
2021/05/28 06:41:02;;;;;;;5.13;1.70;;;16.50;99.90;;;;;;5005811;28;21855;-74
2021/05/28 06:43:28;;;;;;;4.70;1.88;;;16.10;99.90;;;;;;5006602;28;20065;-75
2021/05/28 06:45:54;;;;;;;4.85;2.30;;;16.40;99.90;;;;;;4998400;28;20069;-74
2021/05/28 06:48:20;;;;;;;7.25;2.65;;;16.90;99.90;;;;;;4996880;28;20403;-75
2021/05/28 06:50:46;;;;;;;4.63;2.03;;;16.70;99.90;;;;;;5019213;28;20073;-74
2021/05/28 06:53:11;;;;;;;6.65;1.95;;;16.50;99.90;;;;;;5004355;28;20415;-74
2021/05/28 06:55:38;;;;;;;6.75;2.17;;;16.50;99.90;;;;;;5003429;28;20076;-74
2021/05/28 06:58:04;;;;;;;6.75;1.73;;;16.30;99.90;;;;;;5000743;28;20037;-74
2021/05/28 07:00:30;;;;;;;5.85;1.80;;;16.50;99.90;;;;;;4999590;28;20380;-74
2021/05/28 07:02:56;;;;;;;5.05;2.10;;;16.90;99.90;;;;;;5007969;28;20030;-75
2021/05/28 07:05:24;;;;;;;4.85;1.80;;;16.60;99.90;;;;;;5002936;28;20059;-74
2021/05/28 07:07:51;;;;;;;7.03;2.08;;;17.00;99.90;;;;;;5007453;28;20029;-74
2021/05/28 07:10:17;;;;;;;4.60;1.77;;;16.60;99.90;;;;;;5007591;28;20033;-74
2021/05/28 07:12:43;;;;;;;5.22;2.42;;;17.00;99.90;;;;;;5000281;28;20747;-74
2021/05/28 07:15:09;;;;;;;4.55;1.92;;;17.60;99.90;;;;;;4998836;28;20034;-74
2021/05/28 07:17:35;;;;;;;4.93;2.17;;;17.50;99.90;;;;;;5004920;28;20026;-74
2021/05/28 07:20:02;;;;;;;6.43;2.20;;;17.60;99.90;;;;;;5007169;28;20034;-74
2021/05/28 07:22:28;;;;;;;6.85;2.50;;;17.70;99.90;;;;;;5001681;28;20029;-74
2021/05/28 07:24:53;;;;;;;5.68;1.65;;;18.20;99.90;;;;;;5007518;28;20080;-74
2021/05/28 07:27:19;;;;;;;6.82;2.20;;;18.40;99.90;;;;;;5018766;28;20104;-74
2021/05/28 07:29:45;;;;;;;8.07;2.17;;;18.60;99.90;;;;;;5007607;28;20093;-74
2021/05/28 07:32:10;;;;;;;5.72;1.75;;;18.60;99.90;;;;;;5004460;28;20037;-74
2021/05/28 07:34:38;;;;;;;4.53;1.85;;;18.70;99.60;;;;;;5007778;28;20507;-74
2021/05/28 07:37:04;;;;;;;5.07;2.10;;;19.10;99.60;;;;;;5005647;28;20026;-74
2021/05/28 07:39:29;;;;;;;5.45;2.15;;;18.90;99.30;;;;;;5000856;28;20720;-74
2021/05/28 07:41:55;;;;;;;5.15;1.65;;;19.40;98.00;;;;;;5004882;28;20536;-74
2021/05/28 07:44:21;;;;;;;5.32;1.80;;;19.70;97.10;;;;;;5001340;28;20045;-74
2021/05/28 07:46:46;;;;;;;5.03;1.88;;;19.70;96.80;;;;;;4999422;28;20566;-74
2021/05/28 07:49:14;;;;;;;6.45;2.40;;;19.30;97.40;;;;;;5002864;28;20046;-74
2021/05/28 07:51:40;;;;;;;6.22;1.88;;;19.70;97.50;;;;;;5004510;28;20674;-74
2021/05/28 07:54:06;;;;;;;5.22;1.85;;;19.90;96.40;;;;;;5003144;28;20046;-74
2021/05/28 07:56:36;;;;;;;5.45;2.00;;;20.10;96.10;;;;;;5001943;28;20510;-74
2021/05/28 07:59:03;;;;;;;5.32;1.70;;;19.70;96.30;;;;;;4994584;28;20052;-75
2021/05/28 08:01:28;;;;;;;9.73;2.45;;;20.50;97.20;;;;;;5005233;28;20066;-74
2021/05/28 08:03:56;;;;;;;6.22;2.15;;;20.40;96.20;;;;;;5000763;28;20046;-74
2021/05/28 08:06:22;;;;;;;6.75;2.20;;;20.90;95.40;;;;;;5005101;28;20041;-74
2021/05/28 08:08:48;;;;;;;7.50;2.45;;;21.20;94.30;;;;;;5002119;28;20113;-74
2021/05/28 08:11:14;;;;;;;9.40;2.90;;;20.60;95.30;;;;;;5002108;28;20144;-74
2021/05/28 08:13:40;;;;;;;7.97;2.30;;;21.50;93.80;;;;;;4993615;28;20526;-74
2021/05/28 08:16:06;;;;;;;6.70;2.60;;;21.40;93.30;;;;;;5003745;28;20088;-74
2021/05/28 08:18:31;;;;;;;6.82;2.58;;;21.60;94.30;;;;;;5006526;28;20088;-74
2021/05/28 08:20:57;;;;;;;8.70;2.22;;;21.20;93.70;;;;;;5004457;28;20029;-74
2021/05/28 08:23:23;;;;;;;7.20;2.13;;;20.00;95.00;;;;;;4999123;28;20049;-74
2021/05/28 08:25:49;;;;;;;6.13;2.03;;;19.90;94.60;;;;;;5004409;28;20038;-73
2021/05/28 08:28:18;;;;;;;6.18;2.53;;;18.80;96.40;;;;;;5004682;28;20812;-74
2021/05/28 08:30:45;;;;;;;8.45;2.03;;;18.60;97.40;;;;;;5007414;28;20034;-74
2021/05/28 08:33:12;;;;;;;5.03;1.63;;;18.70;97.90;;;;;;5004416;28;20034;-74
2021/05/28 08:35:42;;;;;;;7.15;1.80;;;20.00;97.30;;;;;;5002030;28;20038;-74
2021/05/28 08:38:08;;;;;;;6.85;1.95;;;20.00;96.90;;;;;;5009626;28;20064;-74
2021/05/28 08:40:34;;;;;;;5.38;1.90;;;19.60;96.20;;;;;;5000749;28;20054;-74
2021/05/28 08:43:05;;;;;;;5.10;1.50;;;19.30;97.30;;;;;;5004702;28;20041;-74
2021/05/28 08:45:34;;;;;;;8.00;2.03;;;20.60;96.80;;;;;;5005480;28;20125;-74
2021/05/28 08:48:00;;;;;;;4.53;1.50;;;19.90;95.40;;;;;;5006452;28;20108;-74
2021/05/28 08:50:26;;;;;;;5.22;1.65;;;19.70;95.50;;;;;;5009371;28;20108;-74
2021/05/28 08:52:52;;;;;;;5.60;1.63;;;20.60;95.30;;;;;;5007452;28;20074;-74
2021/05/28 08:55:18;;;;;;;5.47;1.80;;;20.70;95.00;;;;;;5003983;28;20026;-74
2021/05/28 08:57:44;;;;;;;5.43;1.70;;;20.60;95.30;;;;;;5007858;28;20828;-74
2021/05/28 09:00:10;;;;;;;6.63;1.92;;;20.60;95.70;;;;;;5009130;28;20030;-74
2021/05/28 09:02:38;;;;;;;8.20;1.80;;;21.50;94.30;;;;;;5004967;28;20022;-74
2021/05/28 09:05:13;;;;;;;5.85;1.50;;;21.00;94.10;;;;;;5007504;28;20037;-74
2021/05/28 09:07:51;;;;;;;4.40;1.50;;;19.70;95.20;;;;;;5008722;28;20036;-74
2021/05/28 09:10:25;;;;;;;5.03;1.70;;;19.70;95.50;;;;;;5008659;28;20458;-74
2021/05/28 09:12:51;;;;;;;3.78;1.60;;;19.80;95.10;;;;;;5006829;28;20048;-74
2021/05/28 09:15:21;;;;;;;6.18;1.40;;;19.20;96.40;;;;;;5009483;28;20707;-74
2021/05/28 09:17:50;;;;;;;4.05;1.30;;;19.00;96.90;;;;;;5001954;28;20076;-74
2021/05/28 09:20:18;;;;;;;9.68;1.80;;;19.00;98.10;;;;;;5007118;28;20022;-74
2021/05/28 09:22:44;;;;;;;7.97;1.85;;;19.60;96.70;;;;;;5006836;28;20057;-74
2021/05/28 09:25:11;;;;;;;4.97;1.40;;;19.30;97.50;;;;;;5007117;28;20044;-74
2021/05/28 09:27:37;;;;;;;5.88;1.50;;;19.40;96.40;;;;;;5007905;28;20072;-74
2021/05/28 09:30:09;;;;;;;4.72;1.40;;;19.20;97.80;;;;;;5000709;28;20050;-74
2021/05/28 09:32:38;;;;;;;4.78;1.30;;;19.70;98.30;;;;;;5006350;28;20033;-73
2021/05/28 09:35:12;;;;;;;6.45;1.48;;;19.70;98.20;;;;;;5008196;28;20349;-74
2021/05/28 09:37:39;;;;;;;5.70;1.52;;;19.60;98.60;;;;;;5008845;28;20108;-74
2021/05/28 09:40:17;;;;;;;9.00;1.17;;;19.40;98.00;;;;;;5006952;28;20033;-74
2021/05/28 09:42:57;;;;;;;4.63;1.52;;;19.20;98.10;;;;;;5007644;28;20084;-74
2021/05/28 09:45:35;;;;;;;7.20;1.33;;;19.50;97.40;;;;;;5001767;28;20650;-74
2021/05/28 09:48:20;;;;;;;4.38;1.58;;;19.80;97.90;;;;;;5006974;28;20034;-74
2021/05/28 09:50:52;;;;;;;3.90;1.40;;;19.10;98.00;;;;;;5005471;28;20108;-74
2021/05/28 09:53:30;;;;;;;8.07;1.50;;;19.20;98.30;;;;;;5006945;28;20053;-74
2021/05/28 09:55:58;;;;;;;4.43;1.40;;;19.40;98.60;;;;;;5004688;28;20049;-74
2021/05/28 09:58:24;;;;;;;3.70;1.25;;;19.70;98.70;;;;;;5005671;28;20420;-74
2021/05/28 10:00:50;;;;;;;3.45;1.30;;;20.20;98.20;;;;;;5003323;28;20464;-74
2021/05/28 10:03:22;;;;;;;5.05;1.27;;;19.90;97.60;;;;;;5007733;28;20065;-74
2021/05/28 10:05:58;;;;;;;5.60;1.02;;;19.90;98.10;;;;;;5002097;28;20046;-74
2021/05/28 10:08:27;;;;;;;5.53;1.23;;;20.40;97.50;;;;;;5003678;28;20038;-74
2021/05/28 10:10:55;;;;;;;6.22;1.17;;;20.40;97.80;;;;;;5007224;28;20028;-74
2021/05/28 10:13:22;;;;;;;4.95;0.98;;;20.60;97.20;;;;;;5002691;28;20721;-74
2021/05/28 10:15:58;;;;;;;3.28;0.90;;;20.70;96.30;;;;;;5005258;28;20064;-74
2021/05/28 10:18:24;;;;;;;8.02;1.63;;;20.40;96.70;;;;;;5007022;28;20037;-74
2021/05/28 10:20:54;;;;;;;9.30;1.02;;;20.60;96.90;;;;;;5003490;28;20023;-74
2021/05/28 10:23:23;;;;;;;4.15;1.00;;;20.60;96.20;;;;;;5005440;28;20060;-74
2021/05/28 10:25:55;;;;;;;5.38;1.00;;;21.30;96.50;;;;;;5004116;28;20034;-74
2021/05/28 10:28:23;;;;;;;6.18;1.30;;;21.70;95.50;;;;;;5005057;28;20419;-74
2021/05/28 10:30:51;;;;;;;3.15;0.93;;;21.80;94.40;;;;;;5004621;28;20041;-74
2021/05/28 10:33:22;;;;;;;4.30;1.10;;;22.10;95.00;;;;;;5007451;28;20468;-74
2021/05/28 10:35:51;;;;;;;6.37;1.50;;;21.10;93.80;;;;;;5001727;28;20050;-74
2021/05/28 10:38:34;;;;;;;2.80;1.00;;;21.70;94.50;;;;;;5004735;28;20335;-74
2021/05/28 10:40:59;;;;;;;4.68;1.20;;;21.60;93.70;;;;;;5005927;28;20073;-74
2021/05/28 10:43:26;;;;;;;3.30;1.00;;;21.70;93.90;;;;;;5005751;28;20965;-74
2021/05/28 10:46:01;;;;;;;8.85;1.30;;;21.30;93.80;;;;;;5005588;28;20586;-74
2021/05/28 10:48:47;;;;;;;4.35;1.25;;;20.70;93.50;;;;;;5007414;28;20558;-74
2021/05/28 10:51:17;;;;;;;3.80;1.00;;;21.30;94.50;;;;;;4996891;28;20674;-74
2021/05/28 10:53:53;;;;;;;3.70;1.15;;;21.00;93.70;;;;;;5006710;28;20685;-74
2021/05/28 10:56:23;;;;;;;5.38;1.40;;;20.90;94.30;;;;;;5006903;28;20034;-74
2021/05/28 10:58:52;;;;;;;3.00;1.15;;;21.10;95.30;;;;;;5005361;28;20030;-75
2021/05/28 11:01:42;;;;;;;7.65;1.40;;;21.50;94.80;;;;;;5005474;28;20832;-74
2021/05/28 11:04:12;;;;;;;2.78;0.98;;;21.50;93.70;;;;;;5004448;28;20041;-74
2021/05/28 11:06:57;;;;;;;3.85;1.10;;;21.70;93.00;;;;;;4999717;28;20499;-75
2021/05/28 11:09:42;;;;;;;6.72;1.13;;;21.80;93.30;;;;;;5000283;28;20037;-74
2021/05/28 11:12:21;;;;;;;4.75;1.27;;;21.60;93.20;;;;;;5003568;28;20030;-74
2021/05/28 11:15:10;;;;;;;5.10;1.63;;;21.60;93.70;;;;;;5006805;28;20076;-75
2021/05/28 11:18:13;;;;;;;5.00;1.00;;;22.00;93.30;;;;;;5004608;28;20034;-74
2021/05/28 11:20:40;;;;;;;2.38;0.82;;;22.00;94.10;;;;;;5006524;28;20087;-74
2021/05/28 11:23:21;;;;;;;3.88;1.30;;;22.10;93.70;;;;;;5005638;28;20464;-74
2021/05/28 11:25:50;;;;;;;5.28;1.25;;;21.80;93.10;;;;;;5001281;28;20026;-74
2021/05/28 11:28:16;;;;;;;4.93;1.63;;;21.70;93.30;;;;;;5005174;28;20491;-74
2021/05/28 11:30:51;;;;;;;3.42;1.08;;;21.90;93.90;;;;;;5003119;28;20117;-74
2021/05/28 11:33:46;;;;;;;4.15;1.25;;;22.10;94.10;;;;;;5007018;28;20034;-75
2021/05/28 11:36:27;;;;;;;6.30;1.65;;;22.30;93.90;;;;;;5000398;28;20038;-74
2021/05/28 11:38:57;;;;;;;4.82;1.10;;;22.80;94.50;;;;;;5001554;28;20045;-74
2021/05/28 11:41:41;;;;;;;6.97;1.30;;;22.90;93.50;;;;;;5004994;28;20076;-75
2021/05/28 11:44:08;;;;;;;4.75;1.20;;;22.90;92.40;;;;;;5005793;28;20042;-75
2021/05/28 11:46:36;;;;;;;3.97;1.10;;;22.90;92.90;;;;;;5006025;28;20452;-74
2021/05/28 11:49:03;;;;;;;5.70;1.35;;;22.70;92.80;;;;;;5000609;28;20042;-75
2021/05/28 11:51:29;;;;;;;5.18;1.20;;;22.70;92.50;;;;;;4996801;28;20062;-74
2021/05/28 11:53:54;;;;;;;9.63;1.58;;;22.90;92.70;;;;;;5005542;28;20112;-74
2021/05/28 11:56:23;;;;;;;4.03;1.30;;;22.10;93.10;;;;;;5006186;28;20105;-75
2021/05/28 11:58:51;;;;;;;5.85;1.55;;;22.50;94.20;;;;;;5003606;28;20034;-74
2021/05/28 12:01:16;;;;;;;6.47;0.90;;;22.40;93.60;;;;;;5002838;28;20437;-74
2021/05/28 12:03:42;;;;;;;6.70;0.90;;;22.40;92.30;;;;;;5004397;28;20117;-75
2021/05/28 12:06:08;;;;;;;5.28;1.02;;;22.60;92.20;;;;;;4999619;28;20701;-75
2021/05/28 12:08:37;;;;;;;9.70;0.90;;;22.60;92.40;;;;;;5007877;28;20121;-75
2021/05/28 12:11:07;;;;;;;3.67;1.00;;;23.00;92.70;;;;;;4993338;28;20464;-75
2021/05/28 12:13:36;;;;;;;5.35;1.20;;;22.90;90.60;;;;;;5007393;28;20034;-75
2021/05/28 12:16:05;;;;;;;4.82;1.00;;;22.40;91.00;;;;;;5003313;28;20356;-74
2021/05/28 12:18:36;;;;;;;2.22;0.90;;;22.30;90.90;;;;;;5003903;28;20705;-75
2021/05/28 12:21:15;;;;;;;5.75;1.50;;;22.60;91.40;;;;;;5003322;28;20514;-74
2021/05/28 12:23:42;;;;;;;2.85;0.90;;;22.70;91.50;;;;;;5000528;28;20078;-75
2021/05/28 12:26:19;;;;;;;4.90;1.33;;;22.60;90.70;;;;;;5007934;28;20034;-74
2021/05/28 12:28:55;;;;;;;3.25;0.98;;;22.80;91.20;;;;;;5007025;28;20081;-75
2021/05/28 12:31:31;;;;;;;4.22;1.20;;;23.00;91.10;;;;;;4999882;28;20037;-74
2021/05/28 12:34:04;;;;;;;4.95;1.00;;;22.80;90.90;;;;;;5009250;28;20034;-75
2021/05/28 12:36:42;;;;;;;3.15;1.25;;;23.10;91.00;;;;;;5010611;28;20071;-75
2021/05/28 12:39:09;;;;;;;6.97;1.25;;;22.90;89.40;;;;;;5000781;28;20030;-75
2021/05/28 12:41:36;;;;;;;5.75;1.35;;;22.90;91.20;;;;;;5003194;28;20037;-74
2021/05/28 12:44:03;;;;;;;4.50;1.20;;;22.70;90.60;;;;;;5003360;28;20073;-75
2021/05/28 12:46:37;;;;;;;3.53;1.00;;;22.70;90.20;;;;;;5009939;28;20080;-75
2021/05/28 12:49:10;;;;;;;4.50;1.20;;;23.00;91.30;;;;;;4997297;28;20144;-75
2021/05/28 12:51:42;;;;;;;4.38;1.25;;;23.00;90.30;;;;;;5005377;28;20042;-75